Csl Metis — C6WK6 — position and weather

sailwx.info

Track history (hours):
 
Tides and Currents Weather Stations Pressure Air Temp Water Temp Dewpoint Dewpoint Depression Visibility Wind Speed Wind Dir Waves Ship Positions

Csl Metis

Last reported at 2017-Nov-23 12:12 UTC. Time now 2017-Nov-24 11:22 UTC.
Position N 29°58' W 093°51'.

Length 230 m; draft 8.5 m.

Type: Cargo ship. MMSI: 308976000.

Date/timePositionNaut miles runAvg speedWind from/ knotsBaromVisibWave heightAir tempDewpointWater temp
2017-Nov-23 12:12N 29°58' W 093°51'2 5.7
2017-Nov-23 11:50N 29°59' W 093°53'4 6.1
2017-Nov-23 11:10N 30°01' W 093°58'1 5.5
2017-Nov-23 10:55N 30°01' W 093°59'4 4.3
2017-Nov-23 10:01N 30°04' W 094°02'0 5.1
2017-Nov-23 10:00N 30°04' W 094°02'  
2017-Nov-19 18:26N 20°40' W 086°56'715.1
2017-Nov-19 18:00N 20°37' W 087°02'6 1.8
2017-Nov-19 14:41N 20°34' W 087°08'0 0.0
2017-Nov-19 14:29N 20°34' W 087°08'0 0.0
2017-Nov-19 10:47N 20°34' W 087°08'0 0.0
2017-Nov-19 10:26N 20°34' W 087°08'0 0.0
2017-Nov-19 09:59N 20°34' W 087°08'0 0.0
2017-Nov-19 04:05N 20°34' W 087°08'0 1.8
2017-Nov-19 03:56N 20°34' W 087°07'1 2.4
2017-Nov-19 03:22N 20°34' W 087°06'3 7.5
2017-Nov-19 03:00N 20°36' W 087°04'4 7.7
2017-Nov-19 02:30N 20°39' W 087°01'  
2017-Nov-16 20:06N 29°48' W 093°21'2 7.8
2017-Nov-16 19:52N 29°50' W 093°21'3 8.7
2017-Nov-16 19:30N 29°53' W 093°21'4 8.5
2017-Nov-16 19:00N 29°57' W 093°20'4 7.7
2017-Nov-16 18:30N 30°01' W 093°20'4 7.7
2017-Nov-16 18:00N 30°05' W 093°20'4 7.1
2017-Nov-16 17:30N 30°08' W 093°20'3 5.3
2017-Nov-16 17:00N 30°11' W 093°19'3 6.1
2017-Nov-16 16:30N 30°12' W 093°16'1 2.9
2017-Nov-16 16:00N 30°13' W 093°14'1 1.5
2017-Nov-16 15:29N 30°14' W 093°15'0 0.0
2017-Nov-16 14:58N 30°14' W 093°15'0 0.0
2017-Nov-16 14:29N 30°14' W 093°15'0 0.0
2017-Nov-16 13:58N 30°14' W 093°15'0 0.0
2017-Nov-16 13:28N 30°14' W 093°15'0 0.0
2017-Nov-16 12:59N 30°14' W 093°15'0 0.0
2017-Nov-16 12:28N 30°14' W 093°15'0 0.0
2017-Nov-16 11:59N 30°14' W 093°15'0 0.0
2017-Nov-16 11:29N 30°14' W 093°15'0 0.0
2017-Nov-16 10:56N 30°14' W 093°15'0 0.0
2017-Nov-16 10:28N 30°14' W 093°15'0 0.0
2017-Nov-16 09:58N 30°14' W 093°15'0 0.0
2017-Nov-16 09:28N 30°14' W 093°15'0 0.0
2017-Nov-16 08:58N 30°14' W 093°15'0 0.0
2017-Nov-16 08:29N 30°14' W 093°15'0 0.0
2017-Nov-16 07:55N 30°14' W 093°15'0 0.0
2017-Nov-16 07:28N 30°14' W 093°15'0 0.0
2017-Nov-16 06:59N 30°14' W 093°15'0 0.0
2017-Nov-16 06:29N 30°14' W 093°15'0 0.0
2017-Nov-16 05:55N 30°14' W 093°15'0 0.0
2017-Nov-16 05:29N 30°14' W 093°15'0 0.0
2017-Nov-16 04:58N 30°14' W 093°15'0 0.0
2017-Nov-16 04:28N 30°14' W 093°15'0 0.0
2017-Nov-16 03:58N 30°14' W 093°15'0 0.0
2017-Nov-16 03:28N 30°14' W 093°15'0 0.0
2017-Nov-16 02:58N 30°14' W 093°15'0 0.0
2017-Nov-16 02:29N 30°14' W 093°15'0 0.0
2017-Nov-16 01:58N 30°14' W 093°15'0 0.0
2017-Nov-16 01:28N 30°14' W 093°15'0 0.0
2017-Nov-16 00:58N 30°14' W 093°15'0 0.0
2017-Nov-16 00:28N 30°14' W 093°15'0 0.0
2017-Nov-15 23:58N 30°14' W 093°15'0 0.0
2017-Nov-15 23:28N 30°14' W 093°15'0 0.2
2017-Nov-15 23:00N 30°14' W 093°15'1 1.8
2017-Nov-15 22:30N 30°13' W 093°15'2 3.6
2017-Nov-15 22:00N 30°12' W 093°17'2 4.8
2017-Nov-15 21:30N 30°10' W 093°19'2 4.2
2017-Nov-15 21:00N 30°08' W 093°20'3 6.1
2017-Nov-15 20:30N 30°05' W 093°19'3 6.6
2017-Nov-15 20:00N 30°02' W 093°20'3 6.6
2017-Nov-15 19:30N 29°59' W 093°20'4 8.0
2017-Nov-15 19:00N 29°55' W 093°20'4 8.4
2017-Nov-15 18:29N 29°50' W 093°21'5 9.8
2017-Nov-15 17:59N 29°45' W 093°21'  
Track history (hours):
 
Tides and Currents Weather Stations Pressure Air Temp Water Temp Dewpoint Dewpoint Depression Visibility Wind Speed Wind Dir Waves Ship Positions

Csl Metis

Last reported at 2017-Nov-23 12:12 UTC. Time now 2017-Nov-24 11:22 UTC.
Position N 29°58' W 093°51'.

Length 230 m; draft 8.5 m.

Type: Cargo ship. MMSI: 308976000.

Date/timePositionNaut miles runAvg speedWind from/ knotsBaromVisibWave heightAir tempDewpointWater temp
2017-Nov-23 12:12N 29°58' W 093°51'2 5.7
2017-Nov-23 11:50N 29°59' W 093°53'4 6.1
2017-Nov-23 11:10N 30°01' W 093°58'1 5.5
2017-Nov-23 10:55N 30°01' W 093°59'4 4.3
2017-Nov-23 10:01N 30°04' W 094°02'0 5.1
2017-Nov-23 10:00N 30°04' W 094°02'  
2017-Nov-19 18:26N 20°40' W 086°56'715.1
2017-Nov-19 18:00N 20°37' W 087°02'6 1.8
2017-Nov-19 14:41N 20°34' W 087°08'0 0.0
2017-Nov-19 14:29N 20°34' W 087°08'0 0.0
2017-Nov-19 10:47N 20°34' W 087°08'0 0.0
2017-Nov-19 10:26N 20°34' W 087°08'0 0.0
2017-Nov-19 09:59N 20°34' W 087°08'0 0.0
2017-Nov-19 04:05N 20°34' W 087°08'0 1.8
2017-Nov-19 03:56N 20°34' W 087°07'1 2.4
2017-Nov-19 03:22N 20°34' W 087°06'3 7.5
2017-Nov-19 03:00N 20°36' W 087°04'4 7.7
2017-Nov-19 02:30N 20°39' W 087°01'  
2017-Nov-16 20:06N 29°48' W 093°21'2 7.8
2017-Nov-16 19:52N 29°50' W 093°21'3 8.7
2017-Nov-16 19:30N 29°53' W 093°21'4 8.5
2017-Nov-16 19:00N 29°57' W 093°20'4 7.7
2017-Nov-16 18:30N 30°01' W 093°20'4 7.7
2017-Nov-16 18:00N 30°05' W 093°20'4 7.1
2017-Nov-16 17:30N 30°08' W 093°20'3 5.3
2017-Nov-16 17:00N 30°11' W 093°19'3 6.1
2017-Nov-16 16:30N 30°12' W 093°16'1 2.9
2017-Nov-16 16:00N 30°13' W 093°14'1 1.5
2017-Nov-16 15:29N 30°14' W 093°15'0 0.0
2017-Nov-16 14:58N 30°14' W 093°15'0 0.0
2017-Nov-16 14:29N 30°14' W 093°15'0 0.0
2017-Nov-16 13:58N 30°14' W 093°15'0 0.0
2017-Nov-16 13:28N 30°14' W 093°15'0 0.0
2017-Nov-16 12:59N 30°14' W 093°15'0 0.0
2017-Nov-16 12:28N 30°14' W 093°15'0 0.0
2017-Nov-16 11:59N 30°14' W 093°15'0 0.0
2017-Nov-16 11:29N 30°14' W 093°15'0 0.0
2017-Nov-16 10:56N 30°14' W 093°15'0 0.0
2017-Nov-16 10:28N 30°14' W 093°15'0 0.0
2017-Nov-16 09:58N 30°14' W 093°15'0 0.0
2017-Nov-16 09:28N 30°14' W 093°15'0 0.0
2017-Nov-16 08:58N 30°14' W 093°15'0 0.0
2017-Nov-16 08:29N 30°14' W 093°15'0 0.0
2017-Nov-16 07:55N 30°14' W 093°15'0 0.0
2017-Nov-16 07:28N 30°14' W 093°15'0 0.0
2017-Nov-16 06:59N 30°14' W 093°15'0 0.0
2017-Nov-16 06:29N 30°14' W 093°15'0 0.0
2017-Nov-16 05:55N 30°14' W 093°15'0 0.0
2017-Nov-16 05:29N 30°14' W 093°15'0 0.0
2017-Nov-16 04:58N 30°14' W 093°15'0 0.0
2017-Nov-16 04:28N 30°14' W 093°15'0 0.0
2017-Nov-16 03:58N 30°14' W 093°15'0 0.0
2017-Nov-16 03:28N 30°14' W 093°15'0 0.0
2017-Nov-16 02:58N 30°14' W 093°15'0 0.0
2017-Nov-16 02:29N 30°14' W 093°15'0 0.0
2017-Nov-16 01:58N 30°14' W 093°15'0 0.0
2017-Nov-16 01:28N 30°14' W 093°15'0 0.0
2017-Nov-16 00:58N 30°14' W 093°15'0 0.0
2017-Nov-16 00:28N 30°14' W 093°15'0 0.0
2017-Nov-15 23:58N 30°14' W 093°15'0 0.0
2017-Nov-15 23:28N 30°14' W 093°15'0 0.2
2017-Nov-15 23:00N 30°14' W 093°15'1 1.8
2017-Nov-15 22:30N 30°13' W 093°15'2 3.6
2017-Nov-15 22:00N 30°12' W 093°17'2 4.8
2017-Nov-15 21:30N 30°10' W 093°19'2 4.2
2017-Nov-15 21:00N 30°08' W 093°20'3 6.1
2017-Nov-15 20:30N 30°05' W 093°19'3 6.6
2017-Nov-15 20:00N 30°02' W 093°20'3 6.6
2017-Nov-15 19:30N 29°59' W 093°20'4 8.0
2017-Nov-15 19:00N 29°55' W 093°20'4 8.4
2017-Nov-15 18:29N 29°50' W 093°21'5 9.8
2017-Nov-15 17:59N 29°45' W 093°21'  

Dump ship's entire track history